sensor_id;sensor_type;location;lat;lon;timestamp;P1;durP1;ratioP1;P2;durP2;ratioP2
33740;SDS011;20065;48.380;10.892;2023-11-19T00:02:13;4.30;;;2.10;;
33740;SDS011;20065;48.380;10.892;2023-11-19T00:05:03;3.15;;;1.80;;
33740;SDS011;20065;48.380;10.892;2023-11-19T00:07:54;4.68;;;2.00;;
33740;SDS011;20065;48.380;10.892;2023-11-19T00:10:40;3.83;;;2.20;;
33740;SDS011;20065;48.380;10.892;2023-11-19T00:13:26;3.45;;;1.90;;
33740;SDS011;20065;48.380;10.892;2023-11-19T00:16:12;4.18;;;1.70;;
33740;SDS011;20065;48.380;10.892;2023-11-19T00:18:58;3.40;;;1.95;;
33740;SDS011;20065;48.380;10.892;2023-11-19T00:21:45;4.57;;;2.70;;
33740;SDS011;20065;48.380;10.892;2023-11-19T00:24:31;3.10;;;1.50;;
33740;SDS011;20065;48.380;10.892;2023-11-19T00:27:17;4.00;;;2.00;;
33740;SDS011;20065;48.380;10.892;2023-11-19T00:30:06;5.07;;;2.35;;
33740;SDS011;20065;48.380;10.892;2023-11-19T00:32:55;4.40;;;2.20;;
33740;SDS011;20065;48.380;10.892;2023-11-19T00:35:42;5.28;;;2.30;;
33740;SDS011;20065;48.380;10.892;2023-11-19T00:38:29;3.70;;;2.10;;
33740;SDS011;20065;48.380;10.892;2023-11-19T00:41:15;8.18;;;2.60;;
33740;SDS011;20065;48.380;10.892;2023-11-19T00:44:04;5.20;;;1.80;;
33740;SDS011;20065;48.380;10.892;2023-11-19T00:46:51;3.95;;;1.95;;
33740;SDS011;20065;48.380;10.892;2023-11-19T00:49:37;3.83;;;1.98;;
33740;SDS011;20065;48.380;10.892;2023-11-19T00:52:23;4.20;;;2.50;;
33740;SDS011;20065;48.380;10.892;2023-11-19T00:55:09;3.38;;;1.77;;
33740;SDS011;20065;48.380;10.892;2023-11-19T00:57:57;5.18;;;2.70;;
33740;SDS011;20065;48.380;10.892;2023-11-19T01:00:43;4.50;;;2.25;;
33740;SDS011;20065;48.380;10.892;2023-11-19T01:03:30;3.60;;;2.20;;
33740;SDS011;20065;48.380;10.892;2023-11-19T01:06:26;3.28;;;1.88;;
33740;SDS011;20065;48.380;10.892;2023-11-19T01:09:13;4.10;;;2.05;;
33740;SDS011;20065;48.380;10.892;2023-11-19T01:12:00;4.60;;;2.05;;
33740;SDS011;20065;48.380;10.892;2023-11-19T01:14:47;3.30;;;1.85;;
33740;SDS011;20065;48.380;10.892;2023-11-19T01:17:34;3.65;;;1.67;;
33740;SDS011;20065;48.380;10.892;2023-11-19T01:20:20;5.10;;;1.83;;
33740;SDS011;20065;48.380;10.892;2023-11-19T01:23:08;5.15;;;1.70;;
33740;SDS011;20065;48.380;10.892;2023-11-19T01:25:54;4.95;;;2.10;;
33740;SDS011;20065;48.380;10.892;2023-11-19T01:28:40;3.45;;;1.70;;
33740;SDS011;20065;48.380;10.892;2023-11-19T01:31:30;2.92;;;1.80;;
33740;SDS011;20065;48.380;10.892;2023-11-19T01:34:19;3.30;;;1.92;;
33740;SDS011;20065;48.380;10.892;2023-11-19T01:37:05;3.83;;;2.00;;
33740;SDS011;20065;48.380;10.892;2023-11-19T01:39:51;3.28;;;1.70;;
33740;SDS011;20065;48.380;10.892;2023-11-19T01:42:38;4.30;;;2.10;;
33740;SDS011;20065;48.380;10.892;2023-11-19T01:45:28;4.93;;;1.88;;
33740;SDS011;20065;48.380;10.892;2023-11-19T01:48:16;3.42;;;1.67;;
33740;SDS011;20065;48.380;10.892;2023-11-19T01:51:03;4.85;;;1.35;;
33740;SDS011;20065;48.380;10.892;2023-11-19T01:53:50;4.05;;;1.85;;
33740;SDS011;20065;48.380;10.892;2023-11-19T01:56:37;3.42;;;2.00;;
33740;SDS011;20065;48.380;10.892;2023-11-19T01:59:29;4.20;;;2.20;;
33740;SDS011;20065;48.380;10.892;2023-11-19T02:02:16;3.72;;;2.10;;
33740;SDS011;20065;48.380;10.892;2023-11-19T02:05:06;4.85;;;2.08;;
33740;SDS011;20065;48.380;10.892;2023-11-19T02:07:52;4.15;;;1.85;;
33740;SDS011;20065;48.380;10.892;2023-11-19T02:10:39;3.80;;;2.10;;
33740;SDS011;20065;48.380;10.892;2023-11-19T02:13:25;5.25;;;2.20;;
33740;SDS011;20065;48.380;10.892;2023-11-19T02:16:11;4.28;;;2.25;;
33740;SDS011;20065;48.380;10.892;2023-11-19T02:18:58;4.03;;;2.33;;
33740;SDS011;20065;48.380;10.892;2023-11-19T02:21:44;4.30;;;3.03;;
33740;SDS011;20065;48.380;10.892;2023-11-19T02:24:31;4.45;;;2.42;;
33740;SDS011;20065;48.380;10.892;2023-11-19T02:27:23;4.90;;;2.60;;
33740;SDS011;20065;48.380;10.892;2023-11-19T02:30:16;5.03;;;2.47;;
33740;SDS011;20065;48.380;10.892;2023-11-19T02:33:02;3.70;;;2.28;;
33740;SDS011;20065;48.380;10.892;2023-11-19T02:35:51;4.82;;;2.70;;
33740;SDS011;20065;48.380;10.892;2023-11-19T02:38:37;5.68;;;2.38;;
33740;SDS011;20065;48.380;10.892;2023-11-19T02:41:23;4.25;;;2.65;;
33740;SDS011;20065;48.380;10.892;2023-11-19T02:44:12;5.38;;;3.05;;
33740;SDS011;20065;48.380;10.892;2023-11-19T02:46:59;4.82;;;3.42;;
33740;SDS011;20065;48.380;10.892;2023-11-19T02:49:45;7.13;;;3.33;;
33740;SDS011;20065;48.380;10.892;2023-11-19T02:52:32;5.47;;;2.90;;
33740;SDS011;20065;48.380;10.892;2023-11-19T02:55:23;4.60;;;2.60;;
33740;SDS011;20065;48.380;10.892;2023-11-19T02:58:09;5.35;;;2.58;;
33740;SDS011;20065;48.380;10.892;2023-11-19T03:01:07;5.25;;;3.10;;
33740;SDS011;20065;48.380;10.892;2023-11-19T03:04:04;6.07;;;3.17;;
33740;SDS011;20065;48.380;10.892;2023-11-19T03:06:51;5.68;;;3.58;;
33740;SDS011;20065;48.380;10.892;2023-11-19T03:09:38;4.57;;;3.03;;
33740;SDS011;20065;48.380;10.892;2023-11-19T03:12:25;4.68;;;3.10;;
33740;SDS011;20065;48.380;10.892;2023-11-19T03:15:12;6.45;;;2.83;;
33740;SDS011;20065;48.380;10.892;2023-11-19T03:17:58;4.15;;;3.03;;
33740;SDS011;20065;48.380;10.892;2023-11-19T03:20:44;4.78;;;3.13;;
33740;SDS011;20065;48.380;10.892;2023-11-19T03:23:32;5.22;;;3.42;;
33740;SDS011;20065;48.380;10.892;2023-11-19T03:26:18;4.47;;;2.55;;
33740;SDS011;20065;48.380;10.892;2023-11-19T03:29:04;5.97;;;3.17;;
33740;SDS011;20065;48.380;10.892;2023-11-19T03:31:50;5.82;;;3.47;;
33740;SDS011;20065;48.380;10.892;2023-11-19T03:34:37;4.35;;;2.78;;
33740;SDS011;20065;48.380;10.892;2023-11-19T03:37:23;6.30;;;3.50;;
33740;SDS011;20065;48.380;10.892;2023-11-19T03:40:11;4.90;;;3.22;;
33740;SDS011;20065;48.380;10.892;2023-11-19T03:42:57;4.15;;;2.97;;
33740;SDS011;20065;48.380;10.892;2023-11-19T03:45:46;4.40;;;2.65;;
33740;SDS011;20065;48.380;10.892;2023-11-19T03:48:32;5.22;;;3.15;;
33740;SDS011;20065;48.380;10.892;2023-11-19T03:51:18;3.45;;;2.22;;
33740;SDS011;20065;48.380;10.892;2023-11-19T03:54:04;4.13;;;2.83;;
33740;SDS011;20065;48.380;10.892;2023-11-19T03:56:52;4.70;;;2.75;;
33740;SDS011;20065;48.380;10.892;2023-11-19T03:59:39;3.95;;;2.72;;
33740;SDS011;20065;48.380;10.892;2023-11-19T04:02:26;4.93;;;2.90;;
33740;SDS011;20065;48.380;10.892;2023-11-19T04:05:13;3.75;;;2.38;;
33740;SDS011;20065;48.380;10.892;2023-11-19T04:07:59;3.97;;;2.53;;
33740;SDS011;20065;48.380;10.892;2023-11-19T04:10:46;3.65;;;2.30;;
33740;SDS011;20065;48.380;10.892;2023-11-19T04:13:32;3.72;;;2.58;;
33740;SDS011;20065;48.380;10.892;2023-11-19T04:16:18;4.22;;;2.33;;
33740;SDS011;20065;48.380;10.892;2023-11-19T04:19:05;4.40;;;2.70;;
33740;SDS011;20065;48.380;10.892;2023-11-19T04:21:52;6.30;;;3.53;;
33740;SDS011;20065;48.380;10.892;2023-11-19T04:24:38;4.70;;;2.35;;
33740;SDS011;20065;48.380;10.892;2023-11-19T04:27:25;4.85;;;2.70;;
33740;SDS011;20065;48.380;10.892;2023-11-19T04:30:11;3.50;;;2.30;;
33740;SDS011;20065;48.380;10.892;2023-11-19T04:32:57;3.97;;;2.20;;
33740;SDS011;20065;48.380;10.892;2023-11-19T04:35:43;4.25;;;2.67;;
33740;SDS011;20065;48.380;10.892;2023-11-19T04:38:29;4.10;;;2.53;;
33740;SDS011;20065;48.380;10.892;2023-11-19T04:41:16;4.10;;;2.53;;
33740;SDS011;20065;48.380;10.892;2023-11-19T04:44:05;5.13;;;2.95;;
33740;SDS011;20065;48.380;10.892;2023-11-19T04:46:51;4.80;;;2.88;;
33740;SDS011;20065;48.380;10.892;2023-11-19T04:49:41;4.32;;;2.75;;
33740;SDS011;20065;48.380;10.892;2023-11-19T04:52:30;4.72;;;3.00;;
33740;SDS011;20065;48.380;10.892;2023-11-19T04:55:16;10.32;;;3.20;;
33740;SDS011;20065;48.380;10.892;2023-11-19T04:58:04;6.78;;;3.28;;
33740;SDS011;20065;48.380;10.892;2023-11-19T05:00:50;4.60;;;2.60;;
33740;SDS011;20065;48.380;10.892;2023-11-19T05:03:36;5.28;;;3.55;;
33740;SDS011;20065;48.380;10.892;2023-11-19T05:06:29;5.25;;;2.80;;
33740;SDS011;20065;48.380;10.892;2023-11-19T05:09:15;4.90;;;3.40;;
33740;SDS011;20065;48.380;10.892;2023-11-19T05:12:04;5.95;;;3.78;;
33740;SDS011;20065;48.380;10.892;2023-11-19T05:14:54;6.13;;;3.45;;
33740;SDS011;20065;48.380;10.892;2023-11-19T05:17:40;4.60;;;3.08;;
33740;SDS011;20065;48.380;10.892;2023-11-19T05:20:26;6.00;;;3.40;;
33740;SDS011;20065;48.380;10.892;2023-11-19T05:23:12;4.57;;;2.80;;
33740;SDS011;20065;48.380;10.892;2023-11-19T05:25:59;5.05;;;3.22;;
33740;SDS011;20065;48.380;10.892;2023-11-19T05:28:46;4.55;;;2.95;;
33740;SDS011;20065;48.380;10.892;2023-11-19T05:31:33;5.45;;;3.10;;
33740;SDS011;20065;48.380;10.892;2023-11-19T05:34:19;5.28;;;3.25;;
33740;SDS011;20065;48.380;10.892;2023-11-19T05:37:05;4.85;;;3.58;;
33740;SDS011;20065;48.380;10.892;2023-11-19T05:39:51;5.38;;;3.60;;
33740;SDS011;20065;48.380;10.892;2023-11-19T05:42:37;4.90;;;3.35;;
33740;SDS011;20065;48.380;10.892;2023-11-19T05:45:23;4.43;;;3.00;;
33740;SDS011;20065;48.380;10.892;2023-11-19T05:48:10;4.85;;;3.22;;
33740;SDS011;20065;48.380;10.892;2023-11-19T05:50:59;4.85;;;3.08;;
33740;SDS011;20065;48.380;10.892;2023-11-19T05:53:48;5.30;;;3.17;;
33740;SDS011;20065;48.380;10.892;2023-11-19T05:56:36;4.95;;;3.00;;
33740;SDS011;20065;48.380;10.892;2023-11-19T05:59:22;4.90;;;3.00;;
33740;SDS011;20065;48.380;10.892;2023-11-19T06:02:08;5.00;;;2.85;;
33740;SDS011;20065;48.380;10.892;2023-11-19T06:04:54;4.60;;;3.03;;
33740;SDS011;20065;48.380;10.892;2023-11-19T06:07:40;4.70;;;3.45;;
33740;SDS011;20065;48.380;10.892;2023-11-19T06:10:27;4.50;;;3.00;;
33740;SDS011;20065;48.380;10.892;2023-11-19T06:13:16;4.80;;;2.67;;
33740;SDS011;20065;48.380;10.892;2023-11-19T06:16:02;4.70;;;3.30;;
33740;SDS011;20065;48.380;10.892;2023-11-19T06:18:49;4.85;;;3.17;;
33740;SDS011;20065;48.380;10.892;2023-11-19T06:21:36;7.20;;;3.55;;
33740;SDS011;20065;48.380;10.892;2023-11-19T06:24:22;6.10;;;3.65;;
33740;SDS011;20065;48.380;10.892;2023-11-19T06:27:08;5.20;;;3.33;;
33740;SDS011;20065;48.380;10.892;2023-11-19T06:29:54;4.30;;;2.85;;
33740;SDS011;20065;48.380;10.892;2023-11-19T06:32:41;5.10;;;2.97;;
33740;SDS011;20065;48.380;10.892;2023-11-19T06:35:27;4.70;;;2.95;;
33740;SDS011;20065;48.380;10.892;2023-11-19T06:38:21;4.10;;;2.58;;
33740;SDS011;20065;48.380;10.892;2023-11-19T06:41:07;5.55;;;2.78;;
33740;SDS011;20065;48.380;10.892;2023-11-19T06:43:57;5.97;;;3.30;;
33740;SDS011;20065;48.380;10.892;2023-11-19T06:46:43;4.40;;;2.80;;
33740;SDS011;20065;48.380;10.892;2023-11-19T06:49:29;4.05;;;2.70;;
33740;SDS011;20065;48.380;10.892;2023-11-19T06:52:16;4.95;;;3.30;;
33740;SDS011;20065;48.380;10.892;2023-11-19T06:55:02;4.35;;;2.65;;
33740;SDS011;20065;48.380;10.892;2023-11-19T06:57:49;5.25;;;2.50;;
33740;SDS011;20065;48.380;10.892;2023-11-19T07:00:38;4.57;;;2.47;;
33740;SDS011;20065;48.380;10.892;2023-11-19T07:03:24;3.80;;;2.13;;
33740;SDS011;20065;48.380;10.892;2023-11-19T07:06:10;3.95;;;2.10;;
33740;SDS011;20065;48.380;10.892;2023-11-19T07:08:58;3.90;;;2.70;;
33740;SDS011;20065;48.380;10.892;2023-11-19T07:11:48;4.60;;;2.25;;
33740;SDS011;20065;48.380;10.892;2023-11-19T07:14:36;3.38;;;2.05;;
33740;SDS011;20065;48.380;10.892;2023-11-19T07:17:22;3.72;;;2.22;;
33740;SDS011;20065;48.380;10.892;2023-11-19T07:20:11;4.05;;;2.30;;
33740;SDS011;20065;48.380;10.892;2023-11-19T07:23:00;5.57;;;2.60;;
33740;SDS011;20065;48.380;10.892;2023-11-19T07:25:46;5.10;;;2.13;;
33740;SDS011;20065;48.380;10.892;2023-11-19T07:28:34;4.22;;;2.08;;
33740;SDS011;20065;48.380;10.892;2023-11-19T07:31:20;2.90;;;1.48;;
33740;SDS011;20065;48.380;10.892;2023-11-19T07:34:09;3.03;;;1.85;;
33740;SDS011;20065;48.380;10.892;2023-11-19T07:36:56;3.40;;;2.00;;
33740;SDS011;20065;48.380;10.892;2023-11-19T07:39:45;3.40;;;2.00;;
33740;SDS011;20065;48.380;10.892;2023-11-19T07:42:31;3.80;;;2.00;;
33740;SDS011;20065;48.380;10.892;2023-11-19T07:45:17;3.60;;;1.98;;
33740;SDS011;20065;48.380;10.892;2023-11-19T07:48:03;3.72;;;1.95;;
33740;SDS011;20065;48.380;10.892;2023-11-19T07:50:52;3.75;;;1.90;;
33740;SDS011;20065;48.380;10.892;2023-11-19T07:53:39;3.88;;;2.20;;
33740;SDS011;20065;48.380;10.892;2023-11-19T07:59:35;3.22;;;1.60;;
33740;SDS011;20065;48.380;10.892;2023-11-19T08:02:21;2.80;;;1.48;;
33740;SDS011;20065;48.380;10.892;2023-11-19T08:05:09;3.30;;;1.60;;
33740;SDS011;20065;48.380;10.892;2023-11-19T08:07:58;5.20;;;2.47;;
33740;SDS011;20065;48.380;10.892;2023-11-19T08:10:44;4.88;;;2.70;;
33740;SDS011;20065;48.380;10.892;2023-11-19T08:13:33;4.05;;;1.80;;
33740;SDS011;20065;48.380;10.892;2023-11-19T08:16:19;4.32;;;2.40;;
33740;SDS011;20065;48.380;10.892;2023-11-19T08:19:05;5.75;;;2.92;;
33740;SDS011;20065;48.380;10.892;2023-11-19T08:21:51;3.35;;;1.73;;
33740;SDS011;20065;48.380;10.892;2023-11-19T08:24:38;4.22;;;2.28;;
33740;SDS011;20065;48.380;10.892;2023-11-19T08:27:26;3.78;;;2.00;;
33740;SDS011;20065;48.380;10.892;2023-11-19T08:30:12;3.40;;;1.52;;
33740;SDS011;20065;48.380;10.892;2023-11-19T08:32:59;3.08;;;1.48;;
33740;SDS011;20065;48.380;10.892;2023-11-19T08:35:48;2.90;;;1.77;;
33740;SDS011;20065;48.380;10.892;2023-11-19T08:38:37;2.88;;;1.50;;
33740;SDS011;20065;48.380;10.892;2023-11-19T08:41:23;3.15;;;1.60;;
33740;SDS011;20065;48.380;10.892;2023-11-19T08:44:10;3.50;;;1.80;;
33740;SDS011;20065;48.380;10.892;2023-11-19T08:46:57;5.63;;;2.55;;
33740;SDS011;20065;48.380;10.892;2023-11-19T08:49:44;5.72;;;1.90;;
33740;SDS011;20065;48.380;10.892;2023-11-19T08:52:31;4.30;;;2.03;;
33740;SDS011;20065;48.380;10.892;2023-11-19T08:55:17;3.40;;;1.67;;
33740;SDS011;20065;48.380;10.892;2023-11-19T08:58:04;4.28;;;1.77;;
33740;SDS011;20065;48.380;10.892;2023-11-19T09:00:52;4.03;;;2.05;;
33740;SDS011;20065;48.380;10.892;2023-11-19T09:03:39;5.55;;;1.50;;
33740;SDS011;20065;48.380;10.892;2023-11-19T09:06:25;2.75;;;1.35;;
33740;SDS011;20065;48.380;10.892;2023-11-19T09:09:12;3.77;;;1.57;;
33740;SDS011;20065;48.380;10.892;2023-11-19T09:11:59;2.75;;;1.40;;
33740;SDS011;20065;48.380;10.892;2023-11-19T09:14:45;5.78;;;1.30;;
33740;SDS011;20065;48.380;10.892;2023-11-19T09:17:31;2.50;;;1.30;;
33740;SDS011;20065;48.380;10.892;2023-11-19T09:20:18;3.70;;;2.22;;
33740;SDS011;20065;48.380;10.892;2023-11-19T09:23:05;2.95;;;1.65;;
33740;SDS011;20065;48.380;10.892;2023-11-19T09:25:53;3.58;;;1.65;;
33740;SDS011;20065;48.380;10.892;2023-11-19T09:28:40;3.08;;;1.63;;
33740;SDS011;20065;48.380;10.892;2023-11-19T09:31:26;5.18;;;1.45;;
33740;SDS011;20065;48.380;10.892;2023-11-19T09:34:12;2.58;;;1.30;;
33740;SDS011;20065;48.380;10.892;2023-11-19T09:36:59;3.20;;;1.70;;
33740;SDS011;20065;48.380;10.892;2023-11-19T09:39:45;2.85;;;1.42;;
33740;SDS011;20065;48.380;10.892;2023-11-19T09:42:32;3.55;;;1.80;;
33740;SDS011;20065;48.380;10.892;2023-11-19T09:45:29;3.00;;;1.55;;
33740;SDS011;20065;48.380;10.892;2023-11-19T09:48:23;4.25;;;1.30;;
33740;SDS011;20065;48.380;10.892;2023-11-19T09:51:11;2.47;;;1.00;;
33740;SDS011;20065;48.380;10.892;2023-11-19T09:53:57;2.00;;;0.80;;
33740;SDS011;20065;48.380;10.892;2023-11-19T09:56:43;2.30;;;0.90;;
33740;SDS011;20065;48.380;10.892;2023-11-19T09:59:30;2.30;;;1.00;;
33740;SDS011;20065;48.380;10.892;2023-11-19T10:02:17;2.53;;;1.03;;
33740;SDS011;20065;48.380;10.892;2023-11-19T10:05:06;4.83;;;1.10;;
33740;SDS011;20065;48.380;10.892;2023-11-19T10:07:53;2.60;;;1.17;;
33740;SDS011;20065;48.380;10.892;2023-11-19T10:10:41;1.90;;;0.70;;
33740;SDS011;20065;48.380;10.892;2023-11-19T10:13:30;2.50;;;0.80;;
33740;SDS011;20065;48.380;10.892;2023-11-19T10:16:17;3.23;;;1.30;;
33740;SDS011;20065;48.380;10.892;2023-11-19T10:19:19;2.00;;;0.77;;
33740;SDS011;20065;48.380;10.892;2023-11-19T10:22:08;2.27;;;0.80;;
33740;SDS011;20065;48.380;10.892;2023-11-19T10:29:08;3.33;;;1.10;;
33740;SDS011;20065;48.380;10.892;2023-11-19T10:31:57;2.43;;;1.10;;
33740;SDS011;20065;48.380;10.892;2023-11-19T10:34:44;3.10;;;1.20;;
33740;SDS011;20065;48.380;10.892;2023-11-19T10:37:30;2.30;;;0.80;;
33740;SDS011;20065;48.380;10.892;2023-11-19T10:40:18;2.40;;;0.97;;
33740;SDS011;20065;48.380;10.892;2023-11-19T10:43:04;2.87;;;1.10;;
33740;SDS011;20065;48.380;10.892;2023-11-19T10:45:50;2.67;;;0.90;;
33740;SDS011;20065;48.380;10.892;2023-11-19T10:48:38;3.27;;;1.07;;
33740;SDS011;20065;48.380;10.892;2023-11-19T10:51:25;4.67;;;1.60;;
33740;SDS011;20065;48.380;10.892;2023-11-19T10:54:11;2.53;;;1.17;;
33740;SDS011;20065;48.380;10.892;2023-11-19T10:57:01;3.97;;;1.40;;
33740;SDS011;20065;48.380;10.892;2023-11-19T10:59:49;2.57;;;1.23;;
33740;SDS011;20065;48.380;10.892;2023-11-19T11:02:40;2.13;;;0.87;;
33740;SDS011;20065;48.380;10.892;2023-11-19T11:05:32;2.73;;;1.10;;
33740;SDS011;20065;48.380;10.892;2023-11-19T11:08:22;2.00;;;0.70;;
33740;SDS011;20065;48.380;10.892;2023-11-19T11:11:09;2.30;;;0.80;;
33740;SDS011;20065;48.380;10.892;2023-11-19T11:13:58;3.70;;;1.17;;
33740;SDS011;20065;48.380;10.892;2023-11-19T11:16:47;2.10;;;0.80;;
33740;SDS011;20065;48.380;10.892;2023-11-19T11:19:38;2.63;;;0.90;;
33740;SDS011;20065;48.380;10.892;2023-11-19T11:22:32;4.17;;;0.90;;
33740;SDS011;20065;48.380;10.892;2023-11-19T11:26:00;2.83;;;1.10;;
33740;SDS011;20065;48.380;10.892;2023-11-19T11:32:08;2.23;;;0.87;;
33740;SDS011;20065;48.380;10.892;2023-11-19T11:38:21;2.73;;;0.80;;
33740;SDS011;20065;48.380;10.892;2023-11-19T11:44:06;2.03;;;0.70;;
33740;SDS011;20065;48.380;10.892;2023-11-19T11:46:55;2.10;;;0.70;;
33740;SDS011;20065;48.380;10.892;2023-11-19T11:49:44;2.00;;;0.70;;
33740;SDS011;20065;48.380;10.892;2023-11-19T11:52:30;2.20;;;0.80;;
33740;SDS011;20065;48.380;10.892;2023-11-19T11:55:17;2.70;;;1.10;;
33740;SDS011;20065;48.380;10.892;2023-11-19T11:58:04;2.30;;;0.70;;
33740;SDS011;20065;48.380;10.892;2023-11-19T12:00:51;2.80;;;1.10;;
33740;SDS011;20065;48.380;10.892;2023-11-19T12:03:38;2.73;;;1.07;;
33740;SDS011;20065;48.380;10.892;2023-11-19T12:06:26;3.60;;;0.83;;
33740;SDS011;20065;48.380;10.892;2023-11-19T12:09:13;2.63;;;0.90;;
33740;SDS011;20065;48.380;10.892;2023-11-19T12:15:02;3.90;;;1.00;;
33740;SDS011;20065;48.380;10.892;2023-11-19T12:17:55;2.30;;;0.90;;
33740;SDS011;20065;48.380;10.892;2023-11-19T12:20:42;3.10;;;1.27;;
33740;SDS011;20065;48.380;10.892;2023-11-19T12:23:32;3.03;;;1.00;;
33740;SDS011;20065;48.380;10.892;2023-11-19T12:26:34;2.73;;;1.00;;
33740;SDS011;20065;48.380;10.892;2023-11-19T12:29:24;2.63;;;1.30;;
33740;SDS011;20065;48.380;10.892;2023-11-19T12:32:11;2.00;;;0.80;;
33740;SDS011;20065;48.380;10.892;2023-11-19T12:34:57;3.37;;;1.10;;
33740;SDS011;20065;48.380;10.892;2023-11-19T12:37:53;2.20;;;0.80;;
33740;SDS011;20065;48.380;10.892;2023-11-19T12:40:39;2.73;;;0.80;;
33740;SDS011;20065;48.380;10.892;2023-11-19T12:43:26;2.60;;;0.83;;
33740;SDS011;20065;48.380;10.892;2023-11-19T12:49:05;2.33;;;0.73;;
33740;SDS011;20065;48.380;10.892;2023-11-19T12:51:55;2.00;;;0.70;;
33740;SDS011;20065;48.380;10.892;2023-11-19T12:54:41;2.40;;;1.00;;
33740;SDS011;20065;48.380;10.892;2023-11-19T12:57:43;2.20;;;0.83;;
33740;SDS011;20065;48.380;10.892;2023-11-19T13:00:33;2.50;;;1.10;;
33740;SDS011;20065;48.380;10.892;2023-11-19T13:03:28;2.90;;;0.97;;
33740;SDS011;20065;48.380;10.892;2023-11-19T13:06:17;2.47;;;1.00;;
33740;SDS011;20065;48.380;10.892;2023-11-19T13:09:06;2.33;;;0.80;;
33740;SDS011;20065;48.380;10.892;2023-11-19T13:15:05;2.53;;;0.93;;
33740;SDS011;20065;48.380;10.892;2023-11-19T13:17:52;2.20;;;0.80;;
33740;SDS011;20065;48.380;10.892;2023-11-19T13:20:38;2.77;;;1.10;;
33740;SDS011;20065;48.380;10.892;2023-11-19T13:23:25;2.70;;;0.90;;
33740;SDS011;20065;48.380;10.892;2023-11-19T13:26:11;2.37;;;1.00;;
33740;SDS011;20065;48.380;10.892;2023-11-19T13:29:09;2.50;;;0.90;;
33740;SDS011;20065;48.380;10.892;2023-11-19T13:32:29;2.20;;;1.10;;
33740;SDS011;20065;48.380;10.892;2023-11-19T13:35:16;2.13;;;0.80;;
33740;SDS011;20065;48.380;10.892;2023-11-19T13:38:03;3.27;;;1.53;;
33740;SDS011;20065;48.380;10.892;2023-11-19T13:40:49;2.27;;;0.90;;
33740;SDS011;20065;48.380;10.892;2023-11-19T13:43:36;2.50;;;0.93;;
33740;SDS011;20065;48.380;10.892;2023-11-19T13:46:23;4.07;;;1.00;;
33740;SDS011;20065;48.380;10.892;2023-11-19T13:49:09;2.47;;;1.00;;
33740;SDS011;20065;48.380;10.892;2023-11-19T13:51:59;2.77;;;1.10;;
33740;SDS011;20065;48.380;10.892;2023-11-19T13:54:46;2.47;;;0.73;;
33740;SDS011;20065;48.380;10.892;2023-11-19T13:57:34;2.10;;;0.87;;
33740;SDS011;20065;48.380;10.892;2023-11-19T14:00:29;2.57;;;1.00;;
33740;SDS011;20065;48.380;10.892;2023-11-19T14:03:21;2.40;;;1.07;;
33740;SDS011;20065;48.380;10.892;2023-11-19T14:06:14;2.53;;;0.97;;
33740;SDS011;20065;48.380;10.892;2023-11-19T14:09:01;2.37;;;0.80;;
33740;SDS011;20065;48.380;10.892;2023-11-19T14:11:55;3.87;;;1.00;;
33740;SDS011;20065;48.380;10.892;2023-11-19T14:14:55;2.47;;;0.73;;
33740;SDS011;20065;48.380;10.892;2023-11-19T14:17:41;2.00;;;0.70;;
33740;SDS011;20065;48.380;10.892;2023-11-19T14:20:30;2.20;;;0.80;;
33740;SDS011;20065;48.380;10.892;2023-11-19T14:23:18;2.83;;;0.80;;
33740;SDS011;20065;48.380;10.892;2023-11-19T14:26:12;2.00;;;0.70;;
33740;SDS011;20065;48.380;10.892;2023-11-19T14:28:58;1.87;;;0.60;;
33740;SDS011;20065;48.380;10.892;2023-11-19T14:31:44;2.60;;;0.90;;
33740;SDS011;20065;48.380;10.892;2023-11-19T14:34:31;1.90;;;0.70;;
33740;SDS011;20065;48.380;10.892;2023-11-19T14:37:26;2.83;;;1.07;;
33740;SDS011;20065;48.380;10.892;2023-11-19T14:40:12;2.20;;;0.77;;
33740;SDS011;20065;48.380;10.892;2023-11-19T14:42:59;3.20;;;1.03;;
33740;SDS011;20065;48.380;10.892;2023-11-19T14:45:48;4.00;;;1.23;;
33740;SDS011;20065;48.380;10.892;2023-11-19T14:48:34;3.17;;;1.10;;
33740;SDS011;20065;48.380;10.892;2023-11-19T14:51:21;3.80;;;1.10;;
33740;SDS011;20065;48.380;10.892;2023-11-19T14:54:07;2.23;;;1.00;;
33740;SDS011;20065;48.380;10.892;2023-11-19T14:56:53;3.80;;;0.90;;
33740;SDS011;20065;48.380;10.892;2023-11-19T14:59:40;4.77;;;1.30;;
33740;SDS011;20065;48.380;10.892;2023-11-19T15:02:26;2.40;;;1.00;;
33740;SDS011;20065;48.380;10.892;2023-11-19T15:05:13;3.33;;;1.20;;
33740;SDS011;20065;48.380;10.892;2023-11-19T15:08:00;2.57;;;1.07;;
33740;SDS011;20065;48.380;10.892;2023-11-19T15:10:46;4.30;;;1.30;;
33740;SDS011;20065;48.380;10.892;2023-11-19T15:13:35;2.27;;;0.77;;
33740;SDS011;20065;48.380;10.892;2023-11-19T15:16:23;4.23;;;1.20;;
33740;SDS011;20065;48.380;10.892;2023-11-19T15:22:26;2.47;;;1.17;;
33740;SDS011;20065;48.380;10.892;2023-11-19T15:25:15;2.07;;;0.80;;
33740;SDS011;20065;48.380;10.892;2023-11-19T15:28:05;7.23;;;1.60;;
33740;SDS011;20065;48.380;10.892;2023-11-19T15:31:05;4.80;;;1.17;;
33740;SDS011;20065;48.380;10.892;2023-11-19T15:33:54;2.90;;;1.20;;
33740;SDS011;20065;48.380;10.892;2023-11-19T15:36:50;2.40;;;1.10;;
33740;SDS011;20065;48.380;10.892;2023-11-19T15:43:45;2.30;;;0.90;;
33740;SDS011;20065;48.380;10.892;2023-11-19T15:46:52;3.77;;;1.23;;
33740;SDS011;20065;48.380;10.892;2023-11-19T15:49:39;4.10;;;1.20;;
33740;SDS011;20065;48.380;10.892;2023-11-19T15:52:25;2.60;;;1.07;;
33740;SDS011;20065;48.380;10.892;2023-11-19T15:55:15;3.47;;;1.50;;
33740;SDS011;20065;48.380;10.892;2023-11-19T15:58:05;3.80;;;1.70;;
33740;SDS011;20065;48.380;10.892;2023-11-19T16:04:27;3.80;;;1.60;;
33740;SDS011;20065;48.380;10.892;2023-11-19T16:10:05;3.00;;;1.07;;
33740;SDS011;20065;48.380;10.892;2023-11-19T16:12:55;3.77;;;1.37;;
33740;SDS011;20065;48.380;10.892;2023-11-19T16:15:41;4.40;;;1.60;;
33740;SDS011;20065;48.380;10.892;2023-11-19T16:18:27;2.60;;;1.10;;
33740;SDS011;20065;48.380;10.892;2023-11-19T16:21:14;2.13;;;0.80;;
33740;SDS011;20065;48.380;10.892;2023-11-19T16:24:01;2.57;;;1.00;;
33740;SDS011;20065;48.380;10.892;2023-11-19T16:26:54;3.20;;;0.90;;
33740;SDS011;20065;48.380;10.892;2023-11-19T16:29:41;3.53;;;1.30;;
33740;SDS011;20065;48.380;10.892;2023-11-19T16:32:28;2.10;;;0.90;;
33740;SDS011;20065;48.380;10.892;2023-11-19T16:35:20;2.30;;;1.00;;
33740;SDS011;20065;48.380;10.892;2023-11-19T16:38:07;2.50;;;1.17;;
33740;SDS011;20065;48.380;10.892;2023-11-19T16:40:53;2.23;;;0.83;;
33740;SDS011;20065;48.380;10.892;2023-11-19T16:43:40;2.57;;;1.10;;
33740;SDS011;20065;48.380;10.892;2023-11-19T16:46:27;2.57;;;1.07;;
33740;SDS011;20065;48.380;10.892;2023-11-19T16:49:14;2.40;;;1.10;;
33740;SDS011;20065;48.380;10.892;2023-11-19T16:52:04;3.10;;;1.20;;
33740;SDS011;20065;48.380;10.892;2023-11-19T16:54:50;2.97;;;1.50;;
33740;SDS011;20065;48.380;10.892;2023-11-19T16:57:44;2.80;;;1.50;;
33740;SDS011;20065;48.380;10.892;2023-11-19T17:00:43;2.60;;;1.13;;
33740;SDS011;20065;48.380;10.892;2023-11-19T17:03:32;2.40;;;1.00;;
33740;SDS011;20065;48.380;10.892;2023-11-19T17:06:20;2.70;;;0.90;;
33740;SDS011;20065;48.380;10.892;2023-11-19T17:09:06;2.93;;;1.10;;
33740;SDS011;20065;48.380;10.892;2023-11-19T17:12:02;2.07;;;0.83;;
33740;SDS011;20065;48.380;10.892;2023-11-19T17:14:48;2.13;;;0.90;;
33740;SDS011;20065;48.380;10.892;2023-11-19T17:17:35;2.70;;;1.20;;